Terminal Aerodrome Forecast
Issued by NWS

Home | Current Version | Previous Version | Text Only | Print | Product List | Glossary On
Versions: 1 2 3 4 5 6 7 8 9 10 11 12 13 14 15 16 17 18 19
140
FTUS46 KLOX 250559 AAA
TAFPMD
TAF AMD
KPMD 250559Z 2506/2606 24015G20KT P6SM SKC
      TEMPO 2506/2509 24030G40KT 2SM BLDU
     FM250900 22012KT P6SM BKN025
     FM251800 25018G28KT P6SM SCT040
     FM252100 25022G32KT P6SM SCT040
     FM260300 25015G25KT P6SM SCT040=

USA.gov is the U.S. government's official web portal to all federal, state and local government web resources and services.